Terminal Aerodrome Forecast
Issued by NWS Twin Cities, MN

Home | Current Version | Previous Version | Text Only | Print | Product List | Glossary Off
Versions: 1 2 3 4 5 6 7 8 9 10 11 12 13 14 15 16 17 18 19 20 21 22 23 24 25 26 27 28 29 30

000
FTUS43 KMPX 260248 AAA
TAFMSP
TAF AMD
KMSP 260248Z 2603/2706 21012KT P6SM SCT070 BKN250
     FM261000 20007KT P6SM SCT025 OVC040
     FM261800 26012G18KT P6SM OVC045
     FM262200 29010KT P6SM BKN050=

USA.gov is the U.S. government's official web portal to all federal, state and local government web resources and services.